Time;durP1;ratioP1;P1;durP2;ratioP2;P2;SDS_P1;SDS_P2;PMS_P1;PMS_P2;Temp;Humidity;BMP_temperature;BMP_pressure;BME280_temperature;BME280_humidity;BME280_pressure;Samples;Min_cycle;Max_cycle;Signal;HPM_P1;HPM_P2
2023/08/04 00:00:38;;;;;;;14.82;8.77;;;640.70;2432.00;;;;;;5105166;28;20106;-70
2023/08/04 00:03:03;;;;;;;12.77;10.05;;;640.70;2432.00;;;;;;5104626;28;20509;-71
2023/08/04 00:05:29;;;;;;;12.77;9.23;;;640.70;2432.00;;;;;;5099631;28;20030;-70
2023/08/04 00:07:55;;;;;;;11.77;9.68;;;640.70;2432.00;;;;;;5100584;28;20035;-70
2023/08/04 00:10:21;;;;;;;12.25;8.98;;;640.80;2432.00;;;;;;5102763;28;20036;-73
2023/08/04 00:12:47;;;;;;;14.68;9.18;;;640.70;2432.00;;;;;;5097874;28;20469;-71
2023/08/04 00:15:13;;;;;;;14.30;8.50;;;640.60;2432.00;;;;;;5099189;28;20028;-74
2023/08/04 00:17:39;;;;;;;11.65;8.70;;;640.60;2432.00;;;;;;5100343;28;20076;-71
2023/08/04 00:20:10;;;;;;;15.50;9.13;;;665.70;2432.00;;;;;;5099255;28;20534;-71
2023/08/04 00:22:36;;;;;;;15.85;10.02;;;640.70;2432.00;;;;;;5103153;28;20024;-72
2023/08/04 00:25:02;;;;;;;10.75;8.70;;;640.60;2432.00;;;;;;5097674;28;20043;-72
2023/08/04 00:27:28;;;;;;;15.73;9.10;;;640.60;2432.00;;;;;;5094589;28;20035;-72
2023/08/04 00:29:53;;;;;;;13.10;9.23;;;640.70;2432.00;;;;;;5103302;27;20024;-72
2023/08/04 00:32:19;;;;;;;12.82;9.45;;;640.60;2432.00;;;;;;5094629;28;20095;-72
2023/08/04 00:34:46;;;;;;;19.23;10.82;;;;;;;;;;5109983;28;20081;-71
2023/08/04 00:37:12;;;;;;;15.15;11.18;;;640.50;2432.00;;;;;;5094128;28;20095;-72
2023/08/04 00:39:37;;;;;;;13.10;10.50;;;640.40;2432.00;;;;;;5094114;28;20063;-71
2023/08/04 00:42:03;;;;;;;13.15;9.88;;;640.30;2432.00;;;;;;5094028;28;20107;-72
2023/08/04 00:44:30;;;;;;;14.85;9.63;;;640.20;2432.00;;;;;;5101139;28;20032;-72
2023/08/04 00:46:57;;;;;;;15.10;10.35;;;640.10;2432.00;;;;;;5113499;28;20020;-71
2023/08/04 00:49:23;;;;;;;12.35;10.10;;;640.00;2432.00;;;;;;5110665;28;20026;-72
2023/08/04 00:51:49;;;;;;;16.35;10.07;;;615.30;2432.00;;;;;;5113200;28;20024;-77
2023/08/04 00:54:15;;;;;;;15.07;10.63;;;615.20;2432.00;;;;;;5113186;28;20457;-73
2023/08/04 00:56:41;;;;;;;13.23;9.65;;;615.20;2432.00;;;;;;5113473;28;20020;-71
2023/08/04 00:59:07;;;;;;;14.32;10.13;;;615.30;2432.00;;;;;;5113018;27;20019;-72
2023/08/04 01:01:33;;;;;;;13.65;9.23;;;640.00;2432.00;;;;;;5113002;28;20030;-74
2023/08/04 01:03:59;;;;;;;11.13;9.75;;;640.00;2432.00;;;;;;5112758;28;20144;-71
2023/08/04 01:06:55;;;;;;;12.85;9.88;;;615.30;2432.00;;;;;;5113125;28;20480;-71
2023/08/04 01:09:39;;;;;;;13.10;10.23;;;640.00;2432.00;;;;;;5113934;28;20047;-76
2023/08/04 01:12:07;;;;;;;11.18;9.43;;;640.00;2432.00;;;;;;5114026;28;20031;-72
2023/08/04 01:14:34;;;;;;;15.43;9.63;;;640.00;2432.00;;;;;;5113954;28;20020;-72
2023/08/04 01:17:20;;;;;;;12.82;9.75;;;640.10;2432.00;;;;;;5113792;28;20047;-70
2023/08/04 01:19:46;;;;;;;;;;;640.10;2432.00;;;;;;5114303;28;20027;-71
2023/08/04 01:22:11;;;;;;;17.27;10.25;;;640.10;2432.00;;;;;;5113776;28;20027;-72
2023/08/04 01:24:37;;;;;;;13.57;10.10;;;640.10;2432.00;;;;;;5127560;27;20035;-71
2023/08/04 01:27:04;;;;;;;15.35;9.38;;;640.20;2432.00;;;;;;5134493;27;20026;-70
2023/08/04 01:29:30;;;;;;;14.05;9.43;;;640.20;2432.00;;;;;;5134155;27;20031;-72
2023/08/04 01:31:57;;;;;;;18.00;10.68;;;640.20;2432.00;;;;;;5133759;27;20023;-74
2023/08/04 01:34:23;;;;;;;11.27;9.85;;;640.30;2432.00;;;;;;5133774;27;20075;-74
2023/08/04 01:36:49;;;;;;;15.63;10.65;;;640.40;2432.00;;;;;;5134270;27;20023;-71
2023/08/04 01:39:14;;;;;;;13.65;8.82;;;640.30;2432.00;;;;;;5134041;27;20023;-72
2023/08/04 01:41:40;;;;;;;13.38;9.95;;;640.20;2432.00;;;;;;5134244;27;20494;-72
2023/08/04 01:44:05;;;;;;;11.63;9.70;;;640.20;2432.00;;;;;;5133950;27;20030;-72
2023/08/04 01:46:31;;;;;;;11.90;9.70;;;640.20;2432.00;;;;;;5133918;28;20019;-72
2023/08/04 01:48:57;;;;;;;15.80;10.27;;;640.30;2432.00;;;;;;5134144;28;20470;-72
2023/08/04 01:51:22;;;;;;;13.95;9.88;;;640.40;2432.00;;;;;;5133963;28;20465;-71
2023/08/04 01:53:48;;;;;;;14.43;10.05;;;640.50;2432.00;;;;;;5134089;28;20460;-74
2023/08/04 01:56:14;;;;;;;14.88;10.50;;;640.50;2432.00;;;;;;5134107;28;20027;-72
2023/08/04 01:58:39;;;;;;;14.15;10.35;;;640.50;2432.00;;;;;;5133970;28;20016;-72
2023/08/04 02:01:05;;;;;;;12.70;10.23;;;640.40;2432.00;;;;;;5133713;28;20026;-70
2023/08/04 02:03:33;;;;;;;13.68;10.10;;;640.40;2432.00;;;;;;5133830;28;20055;-71
2023/08/04 02:05:58;;;;;;;15.88;10.40;;;640.40;2432.00;;;;;;5133893;27;20430;-72
2023/08/04 02:08:24;;;;;;;16.77;9.38;;;640.40;2432.00;;;;;;5133820;28;20032;-72
2023/08/04 02:10:50;;;;;;;16.33;10.48;;;640.30;2432.00;;;;;;5133713;28;20043;-72
2023/08/04 02:13:16;;;;;;;13.77;10.30;;;640.50;2432.00;;;;;;5133803;28;20034;-72
2023/08/04 02:15:42;;;;;;;16.75;10.80;;;640.50;2432.00;;;;;;5133801;27;20015;-71
2023/08/04 02:18:08;;;;;;;14.35;10.20;;;640.30;2432.00;;;;;;5133658;28;20054;-71
2023/08/04 02:20:34;;;;;;;12.50;9.88;;;640.40;2432.00;;;;;;5133744;27;20030;-71
2023/08/04 02:23:00;;;;;;;12.73;10.40;;;640.10;2432.00;;;;;;5133810;27;20069;-76
2023/08/04 02:25:26;;;;;;;11.98;10.30;;;640.00;2432.00;;;;;;5133793;28;20070;-71
2023/08/04 02:27:51;;;;;;;13.73;10.45;;;615.10;2432.00;;;;;;5133929;28;20043;-71
2023/08/04 02:30:17;;;;;;;14.18;10.20;;;615.00;2432.00;;;;;;5133533;28;20063;-71
2023/08/04 02:32:43;;;;;;;16.27;10.88;;;614.80;2432.00;;;;;;5133575;28;20019;-71
2023/08/04 02:35:08;;;;;;;14.10;11.18;;;614.90;2432.00;;;;;;5133558;28;20027;-76
2023/08/04 02:37:34;;;;;;;20.13;11.18;;;614.80;2432.00;;;;;;5133627;28;20103;-70
2023/08/04 02:40:00;;;;;;;16.27;11.45;;;614.80;2432.00;;;;;;5133445;28;20118;-71
2023/08/04 02:42:25;;;;;;;18.77;11.57;;;614.90;2432.00;;;;;;5133619;28;20027;-71
2023/08/04 02:44:55;;;;;;;20.17;11.30;;;614.80;2432.00;;;;;;5135331;27;20030;-72
2023/08/04 02:47:21;;;;;;;14.05;10.13;;;614.90;2432.00;;;;;;5119894;27;20028;-74
2023/08/04 02:49:47;;;;;;;14.73;11.27;;;614.90;2432.00;;;;;;5115505;28;20030;-73
2023/08/04 02:52:15;;;;;;;17.65;12.85;;;615.00;2432.00;;;;;;5115629;28;20103;-71
2023/08/04 02:54:42;;;;;;;15.32;10.07;;;615.00;2432.00;;;;;;5115754;28;20027;-71
2023/08/04 02:57:08;;;;;;;15.00;10.07;;;615.20;2432.00;;;;;;5115625;28;20027;-72
2023/08/04 02:59:33;;;;;;;16.50;10.65;;;615.30;2432.00;;;;;;5115467;28;20084;-71
2023/08/04 03:01:59;;;;;;;13.15;10.48;;;640.00;2432.00;;;;;;5117383;27;20031;-71
2023/08/04 03:04:25;;;;;;;13.23;10.18;;;640.10;2432.00;;;;;;5114317;28;20144;-72
2023/08/04 03:06:51;;;;;;;16.42;10.90;;;640.00;2432.00;;;;;;5111735;28;20047;-72
2023/08/04 03:09:16;;;;;;;16.60;10.32;;;640.00;2432.00;;;;;;5114419;28;20039;-71
2023/08/04 03:11:43;;;;;;;12.10;10.13;;;640.10;2432.00;;;;;;5114575;28;20544;-72
2023/08/04 03:14:08;;;;;;;19.75;11.10;;;615.30;2432.00;;;;;;5114742;28;20472;-71
2023/08/04 03:16:34;;;;;;;14.32;10.23;;;615.20;2432.00;;;;;;5114445;28;20028;-71
2023/08/04 03:18:59;;;;;;;17.95;11.35;;;640.00;2432.00;;;;;;5114446;28;20495;-71
2023/08/04 03:21:25;;;;;;;16.15;10.00;;;640.10;2432.00;;;;;;5114624;28;20053;-74
2023/08/04 03:23:51;;;;;;;15.20;9.77;;;640.10;2432.00;;;;;;5114599;28;20038;-73
2023/08/04 03:26:17;;;;;;;16.05;10.05;;;640.20;2432.00;;;;;;5114488;28;20016;-71
2023/08/04 03:28:42;;;;;;;13.82;9.55;;;640.40;2432.00;;;;;;5114260;28;20028;-72
2023/08/04 03:31:08;;;;;;;16.70;10.10;;;640.50;2432.00;;;;;;5114403;27;20016;-70
2023/08/04 03:33:35;;;;;;;14.75;9.35;;;640.50;2432.00;;;;;;5113993;28;20430;-72
2023/08/04 03:36:01;;;;;;;14.80;9.80;;;640.60;2432.00;;;;;;5114237;28;20038;-71
2023/08/04 03:38:27;;;;;;;16.50;9.32;;;640.70;2432.00;;;;;;5113493;28;20099;-71
2023/08/04 03:40:52;;;;;;;14.00;9.98;;;640.40;2432.00;;;;;;5114115;28;20058;-72
2023/08/04 03:43:18;;;;;;;14.38;9.20;;;640.10;2432.00;;;;;;5113765;28;20047;-71
2023/08/04 03:45:44;;;;;;;12.98;8.60;;;640.10;2432.00;;;;;;5113872;28;20024;-73
2023/08/04 03:48:10;;;;;;;14.45;8.95;;;640.10;2432.00;;;;;;5113693;28;20019;-70
2023/08/04 03:50:35;;;;;;;14.32;10.00;;;640.00;2432.00;;;;;;5113886;28;20467;-71
2023/08/04 03:53:01;;;;;;;10.93;8.45;;;640.10;2432.00;;;;;;5113724;28;20080;-71
2023/08/04 03:55:27;;;;;;;11.05;7.90;;;640.10;2432.00;;;;;;5112989;28;20031;-71
2023/08/04 03:57:53;;;;;;;13.77;8.02;;;640.10;2432.00;;;;;;5113845;28;20031;-72
2023/08/04 04:00:19;;;;;;;17.02;8.35;;;640.10;2432.00;;;;;;5113666;28;20016;-72
2023/08/04 04:02:44;;;;;;;12.27;8.40;;;640.10;2432.00;;;;;;5114093;28;20024;-72
2023/08/04 04:05:10;;;;;;;11.40;8.95;;;640.10;2432.00;;;;;;5113659;28;20077;-71
2023/08/04 04:07:36;;;;;;;14.60;9.55;;;640.30;2432.00;;;;;;5113632;28;20103;-71
2023/08/04 04:10:02;;;;;;;13.40;8.30;;;640.30;2432.00;;;;;;5113524;27;20156;-71
2023/08/04 04:12:28;;;;;;;13.60;9.40;;;640.40;2432.00;;;;;;5110104;28;20081;-72
2023/08/04 04:14:54;;;;;;;12.50;8.55;;;640.40;2432.00;;;;;;5101017;28;20099;-71
2023/08/04 04:17:19;;;;;;;15.95;8.77;;;640.40;2432.00;;;;;;5104004;28;20024;-71
2023/08/04 04:19:45;;;;;;;15.60;9.07;;;640.40;2432.00;;;;;;5098502;28;20484;-72
2023/08/04 04:22:11;;;;;;;15.00;8.90;;;640.50;2432.00;;;;;;5099270;28;20094;-70
2023/08/04 04:24:37;;;;;;;15.02;9.50;;;640.50;2432.00;;;;;;5106845;28;20035;-71
2023/08/04 04:27:03;;;;;;;14.57;9.10;;;640.60;2432.00;;;;;;5113881;28;20023;-71
2023/08/04 04:29:29;;;;;;;14.25;9.48;;;640.60;2432.00;;;;;;5105243;28;20488;-70
2023/08/04 04:31:54;;;;;;;13.65;9.30;;;640.50;2432.00;;;;;;5105636;28;20030;-71
2023/08/04 04:34:20;;;;;;;15.23;8.57;;;640.50;2432.00;;;;;;5105759;28;20115;-70
2023/08/04 04:36:45;;;;;;;12.23;8.75;;;640.50;2432.00;;;;;;5096770;28;20493;-71
2023/08/04 04:39:11;;;;;;;13.07;8.85;;;640.40;2432.00;;;;;;5101237;28;20398;-77
2023/08/04 04:41:38;;;;;;;15.25;8.90;;;640.50;2432.00;;;;;;5110409;27;20028;-70
2023/08/04 04:44:04;;;;;;;13.75;8.63;;;640.40;2432.00;;;;;;5101866;28;20048;-70
2023/08/04 04:46:30;;;;;;;16.52;8.50;;;640.40;2432.00;;;;;;5104060;28;20477;-71
2023/08/04 04:48:56;;;;;;;11.55;9.13;;;640.40;2432.00;;;;;;5097851;28;20054;-70
2023/08/04 04:51:22;;;;;;;14.68;8.63;;;640.40;2432.00;;;;;;5097851;28;20024;-70
2023/08/04 04:53:48;;;;;;;11.77;8.52;;;640.40;2432.00;;;;;;5098335;28;20103;-72
2023/08/04 04:56:14;;;;;;;12.40;8.73;;;640.50;2432.00;;;;;;5106489;28;20098;-73
2023/08/04 04:58:40;;;;;;;11.90;8.75;;;640.50;2432.00;;;;;;5095401;28;20051;-72
2023/08/04 05:01:08;;;;;;;13.02;7.63;;;640.50;2432.00;;;;;;5098015;28;20027;-72
2023/08/04 05:03:33;;;;;;;12.77;7.90;;;640.60;2432.00;;;;;;5104718;28;20066;-74
2023/08/04 05:05:59;;;;;;;10.18;7.15;;;640.70;2432.00;;;;;;5108056;28;20052;-71
2023/08/04 05:08:25;;;;;;;13.55;8.45;;;640.70;2432.00;;;;;;5096163;28;20029;-73
2023/08/04 05:10:51;;;;;;;11.68;8.82;;;640.80;2432.00;;;;;;5103101;28;20040;-72
2023/08/04 05:13:17;;;;;;;13.60;8.45;;;640.90;2432.00;;;;;;5108447;28;20485;-70
2023/08/04 05:15:43;;;;;;;12.13;7.82;;;640.90;2432.00;;;;;;5103743;28;20030;-72
2023/08/04 05:18:08;;;;;;;11.48;8.90;;;665.60;2432.00;;;;;;5103571;28;20020;-72
2023/08/04 05:20:34;;;;;;;13.20;8.18;;;665.60;2432.00;;;;;;5103492;28;20358;-72
2023/08/04 05:23:00;;;;;;;11.85;7.60;;;665.70;2432.00;;;;;;5107121;28;20031;-72
2023/08/04 05:25:25;;;;;;;12.27;8.15;;;665.90;2432.00;;;;;;5104162;28;20153;-73
2023/08/04 05:27:51;;;;;;;12.32;8.05;;;665.90;2432.00;;;;;;5099688;28;20077;-76
2023/08/04 05:30:17;;;;;;;11.02;8.05;;;665.90;2432.00;;;;;;5106640;28;20024;-71
2023/08/04 05:32:42;;;;;;;10.40;7.28;;;666.00;2432.00;;;;;;5100183;28;20427;-75
2023/08/04 05:35:09;;;;;;;14.77;8.95;;;666.00;2432.00;;;;;;5102759;28;20034;-73
2023/08/04 05:37:35;;;;;;;13.05;8.63;;;666.20;2432.00;;;;;;5095471;28;20028;-73
2023/08/04 05:40:02;;;;;;;13.65;8.77;;;666.30;2432.00;;;;;;5099835;28;20081;-72
2023/08/04 05:42:28;;;;;;;12.52;7.47;;;666.40;2432.00;;;;;;5102549;28;20040;-73
2023/08/04 05:44:53;;;;;;;13.73;8.25;;;666.50;2432.00;;;;;;5102290;28;20371;-74
2023/08/04 05:47:20;;;;;;;10.57;7.95;;;691.20;2432.00;;;;;;5099411;28;20035;-74
2023/08/04 05:49:47;;;;;;;11.63;7.82;;;691.20;2432.00;;;;;;5100687;28;20084;-73
2023/08/04 05:52:13;;;;;;;10.73;8.15;;;691.30;2432.00;;;;;;5102639;28;20032;-72
2023/08/04 05:54:38;;;;;;;12.65;7.47;;;691.40;2432.00;;;;;;5106448;28;20389;-72
2023/08/04 05:57:04;;;;;;;10.27;7.95;;;691.50;2432.00;;;;;;5103149;28;20023;-74
2023/08/04 05:59:30;;;;;;;10.43;7.00;;;691.60;2432.00;;;;;;5099402;28;20024;-73
2023/08/04 06:01:56;;;;;;;13.50;7.22;;;691.80;2432.00;;;;;;5095533;28;20032;-73
2023/08/04 06:04:21;;;;;;;12.27;8.05;;;691.90;2432.00;;;;;;5101768;28;20036;-73
2023/08/04 06:06:47;;;;;;;13.40;7.35;;;692.10;2432.00;;;;;;5097220;28;20363;-75
2023/08/04 06:09:13;;;;;;;13.02;7.22;;;716.90;2432.00;;;;;;5095483;28;20421;-73
2023/08/04 06:11:38;;;;;;;10.88;7.32;;;717.00;2432.00;;;;;;5100833;28;20067;-76
2023/08/04 06:14:05;;;;;;;13.23;7.40;;;717.20;2432.00;;;;;;5101819;28;20019;-72
2023/08/04 06:16:30;;;;;;;13.23;6.88;;;717.30;2432.00;;;;;;5104478;28;20114;-72
2023/08/04 06:18:58;;;;;;;16.75;8.55;;;717.30;2432.00;;;;;;5102534;28;20114;-73
2023/08/04 06:21:24;;;;;;;10.98;6.47;;;717.50;2432.00;;;;;;5104470;28;20020;-72
2023/08/04 06:23:49;;;;;;;8.55;6.55;;;717.50;2432.00;;;;;;5105211;28;20042;-72
2023/08/04 06:26:15;;;;;;;13.38;7.18;;;717.70;2432.00;;;;;;5108031;28;20107;-73
2023/08/04 06:28:41;;;;;;;12.00;6.40;;;717.70;2432.00;;;;;;5113526;28;20653;-73
2023/08/04 06:31:07;;;;;;;11.05;7.68;;;742.50;2432.00;;;;;;5098714;28;20032;-73
2023/08/04 06:33:32;;;;;;;12.57;7.18;;;742.60;2432.00;;;;;;5102543;28;20470;-74
2023/08/04 06:35:58;;;;;;;10.57;7.40;;;742.70;2432.00;;;;;;5108160;28;20035;-73
2023/08/04 06:38:24;;;;;;;14.85;7.75;;;742.80;2432.00;;;;;;5100434;28;20025;-74
2023/08/04 06:40:50;;;;;;;14.60;7.95;;;742.90;2432.00;;;;;;5100449;28;20028;-74
2023/08/04 06:43:16;;;;;;;10.38;8.05;;;743.00;2432.00;;;;;;5105371;28;20082;-77
2023/08/04 06:45:41;;;;;;;11.65;7.10;;;743.10;2432.00;;;;;;5100003;28;20052;-73
2023/08/04 06:48:07;;;;;;;12.70;7.25;;;743.10;2432.00;;;;;;5107740;28;20034;-74
2023/08/04 06:50:33;;;;;;;11.48;7.18;;;743.30;2432.00;;;;;;5097390;28;20031;-74
2023/08/04 06:52:58;;;;;;;20.40;6.47;;;768.10;2432.00;;;;;;5102847;28;20032;-76
2023/08/04 06:55:24;;;;;;;13.30;6.78;;;768.20;2432.00;;;;;;5108513;28;20493;-77
2023/08/04 06:57:50;;;;;;;13.55;6.97;;;768.40;2432.00;;;;;;5103169;28;20024;-74
2023/08/04 07:00:17;;;;;;;12.35;7.70;;;768.40;2432.00;;;;;;5101038;28;20024;-75
2023/08/04 07:02:48;;;;;;;15.63;7.22;;;768.40;2432.00;;;;;;5106606;28;20055;-73
2023/08/04 07:05:15;;;;;;;11.40;6.78;;;768.60;2432.00;;;;;;5107248;28;20027;-73
2023/08/04 07:07:40;;;;;;;13.32;7.78;;;768.90;2432.00;;;;;;5100517;28;20490;-73
2023/08/04 07:10:07;;;;;;;9.48;7.45;;;768.80;2380.80;;;;;;5105099;28;20059;-72
2023/08/04 07:12:33;;;;;;;11.55;6.78;;;768.90;2355.20;;;;;;5100917;28;20065;-74
2023/08/04 07:14:59;;;;;;;8.82;6.40;;;793.70;2355.20;;;;;;5098923;28;20038;-74
2023/08/04 07:17:24;;;;;;;11.57;7.50;;;793.70;2304.00;;;;;;5099312;28;20043;-76
2023/08/04 07:19:50;;;;;;;11.38;6.45;;;793.80;2252.80;;;;;;5106675;28;20023;-73
2023/08/04 07:22:16;;;;;;;9.63;7.60;;;794.00;2252.80;;;;;;5099984;28;20028;-73
2023/08/04 07:24:42;;;;;;;8.27;6.63;;;794.20;2227.20;;;;;;5107917;28;20039;-74
2023/08/04 07:27:08;;;;;;;20.70;8.32;;;794.20;2227.20;;;;;;5098190;28;20028;-73
2023/08/04 07:29:34;;;;;;;12.90;6.20;;;794.20;2227.20;;;;;;5104580;28;20023;-74
2023/08/04 07:32:01;;;;;;;11.40;7.15;;;794.50;2201.60;;;;;;5108352;28;20056;-76
2023/08/04 07:34:26;;;;;;;12.00;6.72;;;819.30;2176.00;;;;;;5105203;28;20516;-74
2023/08/04 07:36:52;;;;;;;7.97;6.15;;;819.60;2124.80;;;;;;5106550;28;20028;-74
2023/08/04 07:39:18;;;;;;;11.48;7.25;;;819.60;2176.00;;;;;;5103134;28;20030;-73
2023/08/04 07:41:43;;;;;;;12.68;7.32;;;819.80;2073.60;;;;;;5101681;28;20032;-73
2023/08/04 07:44:09;;;;;;;11.93;7.43;;;819.80;2048.00;;;;;;5104297;28;20405;-76
2023/08/04 07:46:35;;;;;;;9.30;6.72;;;819.60;2099.20;;;;;;5102719;28;20032;-73
2023/08/04 07:49:00;;;;;;;11.43;6.93;;;819.70;2048.00;;;;;;5102304;28;20038;-74
2023/08/04 07:51:26;;;;;;;12.35;8.15;;;820.10;2022.40;;;;;;5106164;28;20023;-74
2023/08/04 07:53:52;;;;;;;11.80;7.00;;;820.00;2022.40;;;;;;5100826;28;20031;-75
2023/08/04 07:56:17;;;;;;;11.90;8.02;;;820.00;1996.80;;;;;;5101853;28;20027;-73
2023/08/04 07:58:43;;;;;;;12.68;7.38;;;844.80;1996.80;;;;;;5105954;28;20543;-75
2023/08/04 08:01:09;;;;;;;13.82;6.78;;;844.90;1996.80;;;;;;5104423;28;20389;-74
2023/08/04 08:03:35;;;;;;;10.23;6.43;;;845.00;1945.60;;;;;;5105485;28;20032;-73
2023/08/04 08:06:02;;;;;;;11.13;6.57;;;845.40;1920.00;;;;;;5099289;28;20024;-74
2023/08/04 08:08:28;;;;;;;12.05;7.63;;;845.40;1920.00;;;;;;5106041;28;20028;-75
2023/08/04 08:10:54;;;;;;;9.45;6.47;;;845.70;1894.40;;;;;;5099177;28;20464;-73
2023/08/04 08:13:21;;;;;;;9.85;6.55;;;870.50;1894.40;;;;;;5097868;28;20111;-73
2023/08/04 08:15:47;;;;;;;15.98;7.60;;;870.50;1868.80;;;;;;5106988;27;20024;-73
2023/08/04 08:18:13;;;;;;;13.40;7.90;;;870.70;1843.20;;;;;;5097166;28;20042;-75
2023/08/04 08:20:40;;;;;;;8.35;6.32;;;870.80;1843.20;;;;;;5104172;28;20020;-75
2023/08/04 08:23:06;;;;;;;11.93;7.60;;;871.00;1843.20;;;;;;5103938;28;20028;-75
2023/08/04 08:25:33;;;;;;;9.27;6.70;;;870.90;1817.60;;;;;;5102788;28;20027;-74
2023/08/04 08:27:59;;;;;;;10.30;6.68;;;870.70;1817.60;;;;;;5105995;28;20509;-73
2023/08/04 08:30:24;;;;;;;9.13;6.60;;;870.90;1792.00;;;;;;5106545;28;20024;-79
2023/08/04 08:32:50;;;;;;;10.32;6.90;;;870.80;1817.60;;;;;;5107448;28;20034;-73
2023/08/04 08:35:16;;;;;;;11.35;7.10;;;870.90;1817.60;;;;;;5103486;28;20035;-72
2023/08/04 08:37:41;;;;;;;12.35;6.75;;;871.00;1817.60;;;;;;5100439;28;20026;-73
2023/08/04 08:40:08;;;;;;;13.88;6.68;;;871.30;1792.00;;;;;;5099832;28;20058;-76
2023/08/04 08:42:34;;;;;;;12.57;7.32;;;;;;;;;;5110031;28;20488;-74
2023/08/04 08:45:01;;;;;;;10.73;7.13;;;896.40;1740.80;;;;;;5110609;28;20024;-73
2023/08/04 08:47:34;;;;;;;10.85;6.82;;;896.20;1740.80;;;;;;5114505;28;20032;-76
2023/08/04 08:50:02;;;;;;;16.42;8.15;;;871.30;1792.00;;;;;;5122224;27;20027;-79
2023/08/04 08:52:33;;;;;;;12.43;7.40;;;896.20;1766.40;;;;;;5135202;27;20064;-73
2023/08/04 08:54:59;;;;;;;9.23;7.28;;;896.50;1740.80;;;;;;5127245;27;20027;-73
2023/08/04 08:57:27;;;;;;;10.18;7.10;;;896.60;1715.20;;;;;;5114354;28;20451;-77
2023/08/04 08:59:56;;;;;;;9.82;6.68;;;896.90;1689.60;;;;;;5114054;28;20012;-73
2023/08/04 09:02:22;;;;;;;10.75;7.57;;;896.90;1689.60;;;;;;5114066;28;20118;-79
2023/08/04 09:04:48;;;;;;;8.35;6.50;;;896.90;1664.00;;;;;;5114193;28;20099;-73
2023/08/04 09:07:13;;;;;;;9.55;6.53;;;896.90;1664.00;;;;;;5114122;28;20035;-75
2023/08/04 09:09:39;;;;;;;11.82;7.05;;;896.80;1664.00;;;;;;5113901;28;20563;-78
2023/08/04 09:12:06;;;;;;;10.90;7.60;;;921.80;1664.00;;;;;;5113871;28;20042;-73
2023/08/04 09:14:52;;;;;;;11.90;6.85;;;921.80;1638.40;;;;;;5113126;28;20111;-73
2023/08/04 09:17:31;;;;;;;11.00;7.28;;;922.00;1612.80;;;;;;5113952;28;20028;-73
2023/08/04 09:19:57;;;;;;;11.55;7.53;;;922.30;1612.80;;;;;;5114069;28;20028;-74
2023/08/04 09:22:24;;;;;;;8.90;6.43;;;922.40;1587.20;;;;;;5113551;28;20019;-75
2023/08/04 09:24:58;;;;;;;12.88;6.28;;;947.20;1587.20;;;;;;5114135;28;20024;-78
2023/08/04 09:27:27;;;;;;;9.10;6.67;;;947.40;1561.60;;;;;;5113956;28;20095;-77
2023/08/04 09:30:05;;;;;;;7.85;6.60;;;947.50;1561.60;;;;;;5113881;28;20020;-80
2023/08/04 09:32:33;;;;;;;9.65;6.80;;;947.20;1561.60;;;;;;5113567;28;20019;-76
2023/08/04 09:35:05;;;;;;;12.85;7.20;;;947.30;1536.00;;;;;;5113410;28;20388;-74
2023/08/04 09:37:32;;;;;;;9.80;6.85;;;947.70;1536.00;;;;;;5113704;28;20027;-75
2023/08/04 09:39:59;;;;;;;12.05;7.55;;;947.80;1536.00;;;;;;5113477;28;20024;-75
2023/08/04 09:42:25;;;;;;;14.80;7.28;;;922.30;1612.80;;;;;;5113571;28;20023;-74
2023/08/04 09:44:52;;;;;;;14.77;6.55;;;947.60;1561.60;;;;;;5113513;28;20039;-74
2023/08/04 09:47:22;;;;;;;10.95;7.15;;;947.80;1536.00;;;;;;5113640;28;20022;-74
2023/08/04 09:49:48;;;;;;;9.57;6.63;;;947.60;1536.00;;;;;;5113361;28;20047;-73
2023/08/04 09:52:30;;;;;;;15.82;6.97;;;947.60;1536.00;;;;;;5113613;28;20023;-74
2023/08/04 09:54:57;;;;;;;13.35;5.90;;;972.80;1484.80;;;;;;5115787;28;20015;-78
2023/08/04 09:57:23;;;;;;;10.15;6.00;;;973.60;1433.60;;;;;;5117826;28;20103;-74
2023/08/04 09:59:50;;;;;;;11.90;6.03;;;998.40;1484.80;;;;;;5117769;28;20110;-72
2023/08/04 10:02:20;;;;;;;9.23;6.57;;;998.80;1408.00;;;;;;5117569;28;20483;-73
2023/08/04 10:04:50;;;;;;;12.43;7.18;;;999.10;1382.40;;;;;;5115377;28;20416;-73
2023/08/04 10:07:19;;;;;;;12.90;6.07;;;1024.00;1382.40;;;;;;5117544;27;20477;-74
2023/08/04 10:09:46;;;;;;;10.07;6.60;;;1024.10;1382.40;;;;;;5117070;28;20489;-73
2023/08/04 10:12:13;;;;;;;12.77;6.05;;;999.00;1382.40;;;;;;5117475;28;20024;-74
2023/08/04 10:14:40;;;;;;;8.75;5.97;;;1024.20;1331.20;;;;;;5117358;28;20116;-76
2023/08/04 10:17:06;;;;;;;9.63;6.40;;;999.20;1305.60;;;;;;5117267;28;20113;-73
2023/08/04 10:19:33;;;;;;;8.65;5.80;;;999.20;1305.60;;;;;;5117177;27;20020;-73
2023/08/04 10:22:10;;;;;;;6.97;5.38;;;1024.10;1280.00;;;;;;5117380;28;20035;-73
2023/08/04 10:24:41;;;;;;;12.65;5.95;;;1024.30;1280.00;;;;;;5117271;28;20039;-73
2023/08/04 10:27:18;;;;;;;8.25;5.60;;;1024.10;1280.00;;;;;;5117129;28;20094;-73
2023/08/04 10:29:44;;;;;;;11.38;6.45;;;1024.60;1254.40;;;;;;5117177;28;20026;-72
2023/08/04 10:32:10;;;;;;;10.18;6.63;;;1024.40;1254.40;;;;;;5117186;28;20376;-77
2023/08/04 10:34:40;;;;;;;11.57;6.30;;;999.20;1280.00;;;;;;5116995;28;20380;-75
2023/08/04 10:37:14;;;;;;;13.60;5.88;;;1024.40;1280.00;;;;;;5117015;28;20031;-73
2023/08/04 10:39:44;;;;;;;9.77;6.00;;;999.20;1305.60;;;;;;5116884;28;20024;-74
2023/08/04 10:42:13;;;;;;;8.95;6.32;;;1024.40;1254.40;;;;;;5116753;28;20031;-77
2023/08/04 10:44:47;;;;;;;11.73;6.63;;;999.30;1280.00;;;;;;5116909;28;20135;-74
2023/08/04 10:47:13;;;;;;;11.95;6.55;;;1024.00;1305.60;;;;;;5104225;28;20077;-73
2023/08/04 10:49:40;;;;;;;9.60;6.32;;;1024.00;1305.60;;;;;;5116561;28;20032;-73
2023/08/04 10:52:09;;;;;;;8.25;5.78;;;1024.70;1280.00;;;;;;5116730;28;20024;-73
2023/08/04 10:54:34;;;;;;;12.68;6.38;;;1024.90;1254.40;;;;;;5116509;28;20470;-74
2023/08/04 10:57:00;;;;;;;12.60;6.60;;;1050.00;1254.40;;;;;;5116598;28;20035;-72
2023/08/04 10:59:26;;;;;;;9.95;5.93;;;1049.70;1280.00;;;;;;5116504;28;20051;-72
2023/08/04 11:01:51;;;;;;;8.70;6.38;;;1024.50;1280.00;;;;;;5116397;28;20027;-73
2023/08/04 11:04:18;;;;;;;12.73;6.70;;;1024.90;1280.00;;;;;;5116105;28;20040;-73
2023/08/04 11:06:45;;;;;;;14.45;6.65;;;1049.80;1280.00;;;;;;5116041;28;20057;-73
2023/08/04 11:09:11;;;;;;;8.38;5.70;;;1049.90;1280.00;;;;;;5116044;28;20039;-72
2023/08/04 11:11:37;;;;;;;13.90;6.57;;;1050.10;1254.40;;;;;;5116244;28;20028;-73
2023/08/04 11:14:07;;;;;;;14.00;7.68;;;1049.80;1254.40;;;;;;5116260;28;20092;-75
2023/08/04 11:16:35;;;;;;;11.95;7.45;;;1050.10;1228.80;;;;;;5116553;28;20019;-80
2023/08/04 11:19:06;;;;;;;12.15;6.53;;;1050.20;1228.80;;;;;;5115940;27;20368;-73
2023/08/04 11:21:31;;;;;;;11.43;6.72;;;1024.90;1254.40;;;;;;5116087;28;20619;-73
2023/08/04 11:23:57;;;;;;;10.70;6.43;;;1049.80;1254.40;;;;;;5116117;28;20119;-73
2023/08/04 11:26:23;;;;;;;11.27;6.40;;;1049.70;1280.00;;;;;;5115873;28;20090;-73
2023/08/04 11:28:48;;;;;;;10.63;6.55;;;1050.00;1228.80;;;;;;5115740;28;20024;-74
2023/08/04 11:31:20;;;;;;;9.68;6.32;;;1049.90;1228.80;;;;;;5116105;28;20032;-73
2023/08/04 11:33:45;;;;;;;10.82;6.43;;;1049.70;1254.40;;;;;;5115845;28;20111;-73
2023/08/04 11:36:11;;;;;;;9.55;6.50;;;1049.70;1228.80;;;;;;5115802;28;20047;-77
2023/08/04 11:38:38;;;;;;;7.05;6.20;;;1049.90;1228.80;;;;;;5115653;28;20028;-76
2023/08/04 11:41:09;;;;;;;9.38;6.53;;;1050.00;1228.80;;;;;;5115687;28;20024;-72
2023/08/04 11:43:34;;;;;;;10.60;5.97;;;1049.90;1254.40;;;;;;5115455;28;20077;-73
2023/08/04 11:46:03;;;;;;;9.40;6.10;;;1050.50;1203.20;;;;;;5115884;28;20032;-74
2023/08/04 11:48:29;;;;;;;9.80;7.13;;;1050.30;1228.80;;;;;;5115523;28;20465;-74
2023/08/04 11:50:56;;;;;;;11.32;6.97;;;1050.50;1203.20;;;;;;5115370;28;20030;-74
2023/08/04 11:53:22;;;;;;;10.85;6.57;;;1050.00;1228.80;;;;;;5115410;28;20022;-73
2023/08/04 11:55:58;;;;;;;11.63;5.97;;;1049.90;1254.40;;;;;;5115470;28;20073;-74
2023/08/04 11:58:39;;;;;;;9.73;6.47;;;1049.70;1228.80;;;;;;5114389;28;20008;-74
2023/08/04 12:01:06;;;;;;;8.90;5.97;;;1049.70;1254.40;;;;;;5110197;28;20031;-74
2023/08/04 12:03:43;;;;;;;9.85;6.75;;;1049.80;1228.80;;;;;;5113922;28;20035;-73
2023/08/04 12:06:19;;;;;;;10.10;7.03;;;1050.00;1228.80;;;;;;5113442;28;20023;-73